Time;durP1;ratioP1;P1;durP2;ratioP2;P2;SDS_P1;SDS_P2;PMS_P1;PMS_P2;Temp;Humidity;BMP_temperature;BMP_pressure;BME280_temperature;BME280_humidity;BME280_pressure;Samples;Min_cycle;Max_cycle;Signal;HPM_P1;HPM_P2
2021/01/31 00:02:22;;;;;;;2.60;1.30;;;-9.10;99.90;;;;;;5050753;28;20748;-62
2021/01/31 00:04:49;;;;;;;2.17;1.37;;;-9.10;99.90;;;;;;5050642;28;20659;-64
2021/01/31 00:07:15;;;;;;;3.50;1.73;;;-9.10;99.90;;;;;;5050956;28;20633;-62
2021/01/31 00:09:42;;;;;;;4.33;2.30;;;-9.10;99.90;;;;;;5051259;28;20195;-62
2021/01/31 00:12:10;;;;;;;3.33;1.57;;;-9.10;99.90;;;;;;5050835;28;20305;-62
2021/01/31 00:14:37;;;;;;;6.00;2.40;;;-9.10;99.90;;;;;;5051021;28;20268;-64
2021/01/31 00:17:04;;;;;;;6.70;2.50;;;-9.10;99.90;;;;;;5050944;28;20617;-62
2021/01/31 00:19:31;;;;;;;3.77;1.90;;;-8.90;99.90;;;;;;5050862;28;20230;-63
2021/01/31 00:21:58;;;;;;;5.93;1.67;;;-8.90;99.90;;;;;;5050992;28;20311;-63
2021/01/31 00:24:25;;;;;;;8.33;1.77;;;-8.90;99.90;;;;;;5051669;28;20275;-61
2021/01/31 00:26:52;;;;;;;2.30;1.57;;;-8.90;99.90;;;;;;5055137;28;20230;-62
2021/01/31 00:29:19;;;;;;;2.77;1.80;;;-8.90;99.90;;;;;;5054257;28;20237;-62
2021/01/31 00:31:47;;;;;;;2.57;1.70;;;-8.80;99.90;;;;;;5054238;28;20676;-62
2021/01/31 00:34:15;;;;;;;5.10;2.27;;;-8.90;99.90;;;;;;5054908;28;20238;-63
2021/01/31 00:36:44;;;;;;;1.60;1.20;;;-8.90;99.90;;;;;;5054063;28;20223;-64
2021/01/31 00:39:10;;;;;;;3.87;2.23;;;-8.90;99.90;;;;;;5054701;28;20314;-62
2021/01/31 00:41:37;;;;;;;2.30;1.30;;;-8.90;99.90;;;;;;5054261;28;20309;-62
2021/01/31 00:44:05;;;;;;;4.00;2.50;;;-8.90;99.90;;;;;;5054535;28;20235;-62
2021/01/31 00:46:33;;;;;;;2.83;1.83;;;-8.90;99.90;;;;;;5054001;28;20641;-63
2021/01/31 00:49:01;;;;;;;3.60;2.30;;;-8.90;99.90;;;;;;5053854;28;20219;-62
2021/01/31 00:51:27;;;;;;;2.73;2.00;;;-8.90;99.90;;;;;;5053568;28;20637;-61
2021/01/31 00:53:54;;;;;;;3.37;2.27;;;-8.80;99.90;;;;;;5053889;28;20291;-62
2021/01/31 00:56:21;;;;;;;3.73;1.83;;;-8.80;99.90;;;;;;5054113;28;20188;-63
2021/01/31 00:58:47;;;;;;;1.73;1.40;;;-8.80;99.90;;;;;;5053828;28;20281;-61
2021/01/31 01:01:15;;;;;;;6.13;2.93;;;-8.70;99.90;;;;;;5053743;28;20697;-61
2021/01/31 01:03:42;;;;;;;4.90;2.37;;;-8.70;99.90;;;;;;5053724;28;20238;-62
2021/01/31 01:06:09;;;;;;;3.87;2.67;;;-8.70;99.90;;;;;;5052764;28;20219;-62
2021/01/31 01:08:36;;;;;;;6.60;2.87;;;-8.60;99.90;;;;;;5053600;28;20282;-62
2021/01/31 01:11:03;;;;;;;3.03;1.43;;;-8.60;99.90;;;;;;5053435;28;20234;-61
2021/01/31 01:13:29;;;;;;;3.20;1.73;;;-8.60;99.90;;;;;;5052887;28;20231;-62
2021/01/31 01:15:56;;;;;;;5.13;2.70;;;-8.60;99.90;;;;;;5053090;28;20223;-62
2021/01/31 01:18:23;;;;;;;4.37;2.60;;;-8.60;99.90;;;;;;5053547;28;20226;-62
2021/01/31 01:20:50;;;;;;;3.27;1.80;;;-8.50;99.90;;;;;;5052647;28;20299;-62
2021/01/31 01:23:18;;;;;;;2.93;1.57;;;-8.50;99.90;;;;;;5053358;28;20381;-62
2021/01/31 01:25:44;;;;;;;6.00;2.40;;;-8.50;99.90;;;;;;5052904;28;20218;-62
2021/01/31 01:28:12;;;;;;;1.30;1.20;;;-8.50;99.90;;;;;;5052810;28;20706;-62
2021/01/31 01:30:39;;;;;;;4.10;2.10;;;-8.30;99.90;;;;;;5052946;28;20269;-62
2021/01/31 01:33:05;;;;;;;3.53;1.73;;;-8.40;99.90;;;;;;5052667;28;20234;-62
2021/01/31 01:35:32;;;;;;;6.13;2.67;;;-8.40;99.90;;;;;;5053124;28;20257;-62
2021/01/31 01:37:58;;;;;;;4.83;2.30;;;-8.40;99.90;;;;;;5052386;28;20286;-62
2021/01/31 01:40:30;;;;;;;3.17;1.17;;;-8.20;99.90;;;;;;5052953;28;20221;-61
2021/01/31 01:42:56;;;;;;;3.40;2.00;;;-8.20;99.90;;;;;;5052866;28;20302;-62
2021/01/31 01:45:23;;;;;;;2.30;1.47;;;-8.20;99.90;;;;;;5052899;28;20660;-61
2021/01/31 01:47:52;;;;;;;4.50;1.60;;;-8.20;99.90;;;;;;5052130;28;20630;-61
2021/01/31 01:50:29;;;;;;;3.43;2.43;;;-8.20;99.90;;;;;;5053157;28;20237;-63
2021/01/31 01:52:58;;;;;;;4.23;2.07;;;-8.20;99.90;;;;;;5052815;28;20242;-63
2021/01/31 01:55:27;;;;;;;1.63;1.40;;;-8.20;99.90;;;;;;5052434;28;20220;-61
2021/01/31 01:57:58;;;;;;;1.00;0.93;;;-8.20;99.90;;;;;;5051917;28;20378;-62
2021/01/31 02:00:25;;;;;;;3.23;2.10;;;-8.20;99.90;;;;;;5052799;28;20188;-62
2021/01/31 02:02:57;;;;;;;2.40;1.57;;;-8.30;99.90;;;;;;5051748;28;20305;-62
2021/01/31 02:05:25;;;;;;;4.90;2.47;;;-8.30;99.90;;;;;;5037189;28;20298;-62
2021/01/31 02:07:51;;;;;;;2.07;1.60;;;-8.20;99.90;;;;;;5052323;28;20192;-62
2021/01/31 02:10:22;;;;;;;4.73;2.40;;;-8.20;99.90;;;;;;5051944;28;20263;-62
2021/01/31 02:12:51;;;;;;;3.33;2.20;;;-8.30;99.90;;;;;;5052950;28;20250;-62
2021/01/31 02:15:20;;;;;;;2.00;1.50;;;-8.30;99.90;;;;;;5052590;28;20192;-62
2021/01/31 02:18:08;;;;;;;2.00;1.47;;;-8.40;99.90;;;;;;5051807;28;20626;-61
2021/01/31 02:21:13;;;;;;;2.47;1.27;;;-8.50;99.90;;;;;;5052509;28;20266;-63
2021/01/31 02:24:03;;;;;;;1.93;1.30;;;-8.60;99.90;;;;;;5052031;28;20703;-63
2021/01/31 02:26:56;;;;;;;2.23;1.20;;;-8.70;99.90;;;;;;5052000;28;20307;-64
2021/01/31 02:29:52;;;;;;;4.00;1.93;;;-8.80;99.90;;;;;;5051768;28;20222;-61
2021/01/31 02:32:51;;;;;;;1.70;1.03;;;-8.90;99.90;;;;;;5052171;28;20251;-62
2021/01/31 02:35:23;;;;;;;1.57;1.20;;;-9.00;99.90;;;;;;5051705;28;20244;-63
2021/01/31 02:37:57;;;;;;;0.90;0.90;;;-9.10;99.90;;;;;;5051766;28;20189;-62
2021/01/31 02:40:29;;;;;;;2.00;1.17;;;-9.00;99.90;;;;;;5051854;28;20225;-61
2021/01/31 02:43:08;;;;;;;3.00;1.43;;;-9.00;99.90;;;;;;5052013;28;20556;-61
2021/01/31 02:45:37;;;;;;;3.83;1.20;;;-9.00;99.90;;;;;;5032293;28;20229;-62
2021/01/31 02:48:11;;;;;;;3.10;1.40;;;-8.90;99.90;;;;;;5031549;28;20206;-62
2021/01/31 02:50:44;;;;;;;2.67;1.40;;;-8.90;99.90;;;;;;5031812;28;20683;-61
2021/01/31 02:53:16;;;;;;;1.90;1.40;;;-8.80;99.90;;;;;;5031748;28;20256;-61
2021/01/31 02:55:48;;;;;;;1.30;1.00;;;-8.80;99.90;;;;;;5031489;28;20278;-62
2021/01/31 02:58:20;;;;;;;3.70;1.53;;;-8.90;99.90;;;;;;5031633;28;20191;-62
2021/01/31 03:00:55;;;;;;;2.53;1.30;;;-8.90;99.90;;;;;;5038428;28;20225;-62
2021/01/31 03:03:28;;;;;;;2.33;1.17;;;-8.90;99.90;;;;;;5050715;28;20283;-62
2021/01/31 03:05:58;;;;;;;1.77;1.17;;;-9.00;99.90;;;;;;5050955;28;20306;-62
2021/01/31 03:08:30;;;;;;;4.17;1.50;;;-9.00;99.90;;;;;;5051275;28;20315;-62
2021/01/31 03:11:02;;;;;;;1.50;1.17;;;-9.10;99.90;;;;;;5051499;28;20269;-61
2021/01/31 03:13:35;;;;;;;2.20;1.40;;;-9.20;99.90;;;;;;5050832;28;20235;-61
2021/01/31 03:16:08;;;;;;;1.63;1.30;;;-9.10;99.90;;;;;;5051143;28;20632;-61
2021/01/31 03:18:39;;;;;;;1.40;1.20;;;-9.20;99.90;;;;;;5031893;28;20187;-62
2021/01/31 03:21:09;;;;;;;2.13;1.00;;;-9.20;99.90;;;;;;5051054;28;20289;-62
2021/01/31 03:23:44;;;;;;;3.13;1.30;;;-9.30;99.90;;;;;;5050670;28;20236;-60
2021/01/31 03:26:17;;;;;;;1.40;1.30;;;-9.30;99.90;;;;;;5050959;28;20188;-61
2021/01/31 03:28:43;;;;;;;2.43;1.50;;;-9.20;99.90;;;;;;5051390;28;20243;-62
2021/01/31 03:31:11;;;;;;;2.37;1.00;;;-9.30;99.90;;;;;;5050965;28;20374;-64
2021/01/31 03:33:46;;;;;;;1.83;1.43;;;-9.40;99.90;;;;;;5031566;28;20292;-61
2021/01/31 03:36:13;;;;;;;1.43;1.17;;;-9.40;99.90;;;;;;5030940;28;20596;-63
2021/01/31 03:38:45;;;;;;;3.47;1.70;;;-9.50;99.90;;;;;;5031268;28;20203;-61
2021/01/31 03:41:15;;;;;;;1.00;0.97;;;-9.50;99.90;;;;;;5042739;28;20181;-63
2021/01/31 03:43:42;;;;;;;1.20;1.10;;;-9.50;99.90;;;;;;5051098;28;20245;-62
2021/01/31 03:46:14;;;;;;;2.93;1.63;;;-9.50;99.90;;;;;;5051130;28;20241;-62
2021/01/31 03:48:46;;;;;;;2.17;1.23;;;-9.60;99.90;;;;;;5050984;28;20221;-62
2021/01/31 03:51:13;;;;;;;1.83;1.73;;;-9.60;99.90;;;;;;5050716;28;20200;-62
2021/01/31 03:53:40;;;;;;;2.07;1.47;;;-9.70;99.90;;;;;;5050996;28;20639;-62
2021/01/31 03:56:09;;;;;;;2.37;1.40;;;-9.70;99.90;;;;;;5051104;28;20277;-62
2021/01/31 03:58:38;;;;;;;5.17;1.97;;;-9.70;99.90;;;;;;5050679;28;20248;-62
2021/01/31 04:01:05;;;;;;;2.57;1.83;;;-9.80;99.90;;;;;;5054086;28;20252;-63
2021/01/31 04:03:37;;;;;;;2.07;1.23;;;-9.80;99.90;;;;;;5054049;28;20228;-62
2021/01/31 04:06:09;;;;;;;2.40;1.47;;;-9.80;99.90;;;;;;5054921;28;20273;-62
2021/01/31 04:08:37;;;;;;;4.23;2.17;;;-9.90;99.90;;;;;;5054810;28;20504;-62
2021/01/31 04:11:04;;;;;;;2.10;1.70;;;-9.90;99.90;;;;;;5054994;28;20350;-62
2021/01/31 04:13:33;;;;;;;2.50;2.10;;;-9.90;99.90;;;;;;5054794;28;20203;-63
2021/01/31 04:16:02;;;;;;;4.87;1.60;;;-9.90;99.90;;;;;;5055099;28;20187;-63
2021/01/31 04:18:28;;;;;;;1.80;1.30;;;-9.90;99.90;;;;;;5054322;28;20371;-60
2021/01/31 04:20:55;;;;;;;2.73;1.57;;;-9.90;99.90;;;;;;5054263;28;20199;-63
2021/01/31 04:23:22;;;;;;;1.20;1.10;;;-9.90;99.90;;;;;;5054003;28;20690;-62
2021/01/31 04:25:50;;;;;;;2.70;1.83;;;-9.90;99.90;;;;;;5054234;28;20225;-62
2021/01/31 04:28:19;;;;;;;2.97;1.70;;;-10.00;99.90;;;;;;5053973;28;20359;-62
2021/01/31 04:30:47;;;;;;;2.77;1.13;;;-10.00;99.90;;;;;;5053731;28;20717;-61
2021/01/31 04:33:15;;;;;;;3.17;1.80;;;-10.00;99.90;;;;;;5054367;28;20566;-62
2021/01/31 04:35:41;;;;;;;2.07;1.20;;;-10.00;99.90;;;;;;5053823;28;20180;-61
2021/01/31 04:38:08;;;;;;;1.77;1.40;;;-10.00;99.90;;;;;;5054206;28;20298;-60
2021/01/31 04:40:36;;;;;;;2.83;1.73;;;-10.10;99.90;;;;;;5053976;28;20622;-61
2021/01/31 04:43:08;;;;;;;2.63;1.53;;;-10.10;99.90;;;;;;5053729;28;20612;-61
2021/01/31 04:45:38;;;;;;;2.70;1.70;;;-10.20;99.90;;;;;;5054162;28;20286;-61
2021/01/31 04:48:17;;;;;;;2.27;1.63;;;-10.20;99.90;;;;;;5053706;28;20190;-61
2021/01/31 04:50:53;;;;;;;1.50;1.20;;;-10.30;99.90;;;;;;5053678;28;20267;-61
2021/01/31 04:53:42;;;;;;;3.67;1.93;;;-10.40;99.90;;;;;;5053790;28;20201;-62
2021/01/31 04:56:33;;;;;;;2.70;1.50;;;-10.30;99.90;;;;;;5053277;28;20235;-63
2021/01/31 04:59:22;;;;;;;4.10;1.90;;;-10.20;99.90;;;;;;5053736;28;20194;-61
2021/01/31 05:01:54;;;;;;;2.30;1.50;;;-10.30;99.90;;;;;;5046856;28;20251;-62
2021/01/31 05:04:23;;;;;;;1.43;1.33;;;-10.20;99.90;;;;;;5053437;28;20634;-62
2021/01/31 05:06:54;;;;;;;3.90;2.00;;;-10.20;99.90;;;;;;5053570;28;20704;-61
2021/01/31 05:09:23;;;;;;;1.67;1.20;;;-10.20;99.90;;;;;;5053512;28;20275;-62
2021/01/31 05:11:58;;;;;;;2.07;1.27;;;-10.20;99.90;;;;;;5053085;28;20246;-63
2021/01/31 05:14:45;;;;;;;1.60;1.47;;;-10.30;99.90;;;;;;5053454;28;20221;-62
2021/01/31 05:17:14;;;;;;;2.27;1.30;;;-10.20;99.90;;;;;;5053609;28;20572;-61
2021/01/31 05:19:40;;;;;;;3.77;1.80;;;-10.20;99.90;;;;;;5053479;28;20669;-61
2021/01/31 05:22:09;;;;;;;2.33;1.50;;;-10.20;99.90;;;;;;5053302;28;20639;-61
2021/01/31 05:24:35;;;;;;;2.07;1.40;;;-10.20;99.90;;;;;;5053624;28;20215;-62
2021/01/31 05:27:03;;;;;;;1.50;1.33;;;-10.20;99.90;;;;;;5053112;28;20223;-61
2021/01/31 05:29:33;;;;;;;3.13;1.63;;;-10.30;99.90;;;;;;5053629;28;20207;-61
2021/01/31 05:32:06;;;;;;;2.80;1.60;;;-10.20;99.90;;;;;;5053419;28;20301;-60
2021/01/31 05:34:39;;;;;;;2.53;1.50;;;-10.20;99.90;;;;;;5053280;28;20369;-61
2021/01/31 05:37:07;;;;;;;5.00;1.80;;;-10.20;99.90;;;;;;5052881;28;20244;-62
2021/01/31 05:39:39;;;;;;;1.47;1.27;;;-10.20;99.90;;;;;;5052841;28;20565;-62
2021/01/31 05:42:10;;;;;;;3.23;1.83;;;-10.30;99.90;;;;;;5052841;28;20753;-62
2021/01/31 05:44:36;;;;;;;1.40;1.30;;;-10.20;99.90;;;;;;5052831;28;20571;-62
2021/01/31 05:47:17;;;;;;;2.97;1.30;;;-10.10;99.90;;;;;;5052822;28;20231;-62
2021/01/31 05:49:45;;;;;;;2.20;1.60;;;-10.10;99.90;;;;;;5052322;28;20223;-61
2021/01/31 05:52:45;;;;;;;1.27;1.00;;;-10.20;99.90;;;;;;5052833;28;20239;-63
2021/01/31 05:55:25;;;;;;;4.60;1.63;;;-10.20;99.90;;;;;;5009933;28;20266;-60
2021/01/31 05:57:52;;;;;;;2.40;1.60;;;-10.20;99.90;;;;;;5010390;28;20211;-62
2021/01/31 06:00:26;;;;;;;2.70;1.80;;;-10.20;99.90;;;;;;5033154;28;20291;-61
2021/01/31 06:03:05;;;;;;;2.13;1.37;;;-10.30;99.90;;;;;;5052575;28;20332;-61
2021/01/31 06:05:32;;;;;;;7.13;2.40;;;-10.20;99.90;;;;;;5051978;28;20322;-61
2021/01/31 06:08:03;;;;;;;2.67;1.60;;;-10.10;99.90;;;;;;5052273;28;20187;-61
2021/01/31 06:10:31;;;;;;;2.23;1.43;;;-10.10;99.90;;;;;;5052646;28;20214;-62
2021/01/31 06:13:07;;;;;;;2.07;1.67;;;-10.20;99.90;;;;;;5052165;28;20199;-61
2021/01/31 06:15:39;;;;;;;2.00;1.60;;;-10.20;99.90;;;;;;5052675;28;20218;-62
2021/01/31 06:18:14;;;;;;;2.17;1.53;;;-10.10;99.90;;;;;;5052163;28;20559;-62
2021/01/31 06:20:42;;;;;;;1.43;0.97;;;-10.10;99.90;;;;;;5051994;28;20274;-61
2021/01/31 06:23:19;;;;;;;1.63;1.30;;;-10.10;99.90;;;;;;5051247;28;20762;-63
2021/01/31 06:25:46;;;;;;;1.17;1.07;;;-10.10;99.90;;;;;;5052094;28;20589;-63
2021/01/31 06:28:17;;;;;;;2.77;1.60;;;-10.10;99.90;;;;;;5052443;28;20227;-61
2021/01/31 06:30:48;;;;;;;4.37;1.93;;;-10.10;99.90;;;;;;5052372;28;20337;-62
2021/01/31 06:33:16;;;;;;;2.57;1.17;;;-10.10;99.90;;;;;;5052036;28;20192;-61
2021/01/31 06:35:44;;;;;;;3.33;1.57;;;-10.10;99.90;;;;;;5052315;28;20325;-63
2021/01/31 06:38:26;;;;;;;2.67;1.60;;;-10.10;99.90;;;;;;5052185;28;20304;-61
2021/01/31 06:41:07;;;;;;;2.57;1.60;;;-10.10;99.90;;;;;;5032032;28;20191;-61
2021/01/31 06:43:48;;;;;;;2.03;1.70;;;-10.20;99.90;;;;;;5036421;28;20294;-64
2021/01/31 06:46:20;;;;;;;2.00;1.70;;;-10.00;99.90;;;;;;5052270;28;20256;-61
2021/01/31 06:48:58;;;;;;;3.30;1.83;;;-10.00;99.90;;;;;;5052464;28;20263;-62
2021/01/31 06:51:41;;;;;;;6.43;2.27;;;-10.00;99.90;;;;;;5052074;28;20222;-62
2021/01/31 06:54:52;;;;;;;1.30;1.13;;;-10.10;99.90;;;;;;5051933;28;20219;-62
2021/01/31 06:57:57;;;;;;;3.40;1.40;;;-10.10;99.90;;;;;;5028681;28;20238;-62
2021/01/31 07:01:02;;;;;;;2.13;1.60;;;-10.10;99.90;;;;;;5051113;28;20208;-61
2021/01/31 07:04:15;;;;;;;4.40;2.40;;;-10.00;99.90;;;;;;5020922;28;20225;-62
2021/01/31 07:07:06;;;;;;;1.70;1.43;;;-10.00;99.90;;;;;;5052100;28;20630;-61
2021/01/31 07:09:50;;;;;;;2.60;1.57;;;-10.00;99.90;;;;;;5020930;28;20274;-62
2021/01/31 07:12:25;;;;;;;3.23;1.70;;;-9.90;99.90;;;;;;5051310;28;20228;-63
2021/01/31 07:14:58;;;;;;;3.83;1.77;;;-10.00;99.90;;;;;;5052053;28;20187;-61
2021/01/31 07:17:30;;;;;;;2.83;1.93;;;-9.90;99.90;;;;;;5045412;28;20211;-62
2021/01/31 07:20:03;;;;;;;0.90;0.90;;;-9.90;99.90;;;;;;5048675;28;20270;-62
2021/01/31 07:22:38;;;;;;;3.27;1.97;;;-9.90;99.90;;;;;;5051474;28;20314;-62
2021/01/31 07:25:09;;;;;;;2.13;1.13;;;-9.80;99.90;;;;;;5051876;28;20265;-63
2021/01/31 07:27:43;;;;;;;2.50;1.77;;;-9.70;99.90;;;;;;5051391;28;20187;-62
2021/01/31 07:30:18;;;;;;;4.70;2.27;;;-9.70;99.90;;;;;;5051099;28;20238;-62
2021/01/31 07:32:56;;;;;;;3.20;2.10;;;-9.80;99.90;;;;;;5051353;28;20219;-64
2021/01/31 07:35:28;;;;;;;2.07;1.73;;;-9.80;99.90;;;;;;5051604;28;20550;-63
2021/01/31 07:38:06;;;;;;;2.93;1.47;;;-9.80;99.90;;;;;;5051268;28;20234;-62
2021/01/31 07:40:32;;;;;;;3.37;1.97;;;-9.70;99.90;;;;;;5051384;28;20218;-63
2021/01/31 07:43:01;;;;;;;1.53;1.43;;;-9.70;99.90;;;;;;5051633;28;20317;-63
2021/01/31 07:45:29;;;;;;;4.23;2.27;;;-9.60;99.90;;;;;;5051191;28;20651;-61
2021/01/31 07:48:31;;;;;;;3.60;2.17;;;-9.60;99.90;;;;;;5050723;28;20652;-63
2021/01/31 07:51:00;;;;;;;3.70;1.90;;;-9.50;99.90;;;;;;5007446;28;20213;-63
2021/01/31 07:53:29;;;;;;;2.47;1.50;;;-9.50;99.90;;;;;;5031351;28;20223;-63
2021/01/31 07:55:56;;;;;;;3.60;2.07;;;-9.40;99.90;;;;;;5031387;28;20219;-62
2021/01/31 07:58:38;;;;;;;2.37;1.50;;;-9.50;99.90;;;;;;5040615;28;20202;-62
2021/01/31 08:01:12;;;;;;;2.43;1.10;;;-9.40;99.90;;;;;;5051439;28;20179;-64
2021/01/31 08:03:41;;;;;;;2.40;1.63;;;-9.30;99.90;;;;;;5051218;28;20342;-63
2021/01/31 08:06:31;;;;;;;4.40;1.70;;;-9.30;99.90;;;;;;5051695;28;20255;-63
2021/01/31 08:08:57;;;;;;;4.30;2.10;;;-9.30;99.90;;;;;;5050397;28;20238;-63
2021/01/31 08:11:56;;;;;;;1.77;1.67;;;-9.30;99.90;;;;;;5051173;28;20202;-63
2021/01/31 08:14:59;;;;;;;3.90;1.90;;;-9.20;99.90;;;;;;5050869;28;20613;-62
2021/01/31 08:17:47;;;;;;;1.50;1.30;;;-9.30;99.90;;;;;;5050502;28;20315;-63
2021/01/31 08:20:24;;;;;;;5.33;1.23;;;-9.20;99.90;;;;;;5050461;28;20202;-62
2021/01/31 08:22:53;;;;;;;2.73;1.47;;;-9.00;99.90;;;;;;5050862;28;20294;-62
2021/01/31 08:25:24;;;;;;;3.37;2.03;;;-9.00;99.90;;;;;;5050835;28;20262;-63
2021/01/31 08:27:54;;;;;;;6.40;2.00;;;-9.00;99.90;;;;;;5050808;28;20249;-63
2021/01/31 08:30:29;;;;;;;1.97;1.40;;;-8.90;99.90;;;;;;5050698;28;20624;-63
2021/01/31 08:33:19;;;;;;;2.20;1.57;;;-8.90;99.90;;;;;;5050638;28;20187;-62
2021/01/31 08:36:08;;;;;;;2.13;1.47;;;-8.90;99.90;;;;;;5050799;28;20225;-63
2021/01/31 08:38:48;;;;;;;3.43;1.77;;;-8.80;99.90;;;;;;5050566;28;20218;-62
2021/01/31 08:41:37;;;;;;;4.37;2.00;;;-8.80;99.90;;;;;;5051393;28;20188;-63
2021/01/31 08:44:40;;;;;;;2.70;1.63;;;-8.80;99.90;;;;;;5050720;28;20184;-62
2021/01/31 08:47:08;;;;;;;2.60;2.00;;;-8.70;99.90;;;;;;5054473;28;20226;-63
2021/01/31 08:49:34;;;;;;;3.47;1.80;;;-8.60;99.90;;;;;;5053678;28;20231;-63
2021/01/31 08:52:03;;;;;;;4.27;2.83;;;-8.60;99.90;;;;;;5054506;28;20598;-63
2021/01/31 08:54:30;;;;;;;9.37;1.90;;;-8.60;99.90;;;;;;5054571;28;20641;-61
2021/01/31 08:56:59;;;;;;;2.80;1.67;;;-8.50;99.90;;;;;;5054647;28;20227;-62
2021/01/31 08:59:29;;;;;;;4.03;1.73;;;-8.50;99.90;;;;;;5054210;28;20677;-62
2021/01/31 09:02:12;;;;;;;2.87;1.50;;;-8.50;99.90;;;;;;5054076;28;20191;-63
2021/01/31 09:04:39;;;;;;;3.90;1.93;;;-8.40;99.90;;;;;;5053764;28;20179;-62
2021/01/31 09:07:06;;;;;;;3.20;1.80;;;-8.40;99.90;;;;;;5053740;28;20222;-62
2021/01/31 09:09:37;;;;;;;2.03;1.63;;;-8.40;99.90;;;;;;5054409;28;20231;-63
2021/01/31 09:12:06;;;;;;;2.50;1.67;;;-8.30;99.90;;;;;;5053272;28;20191;-62
2021/01/31 09:14:34;;;;;;;2.87;1.60;;;-8.20;99.90;;;;;;5053589;28;20660;-63
2021/01/31 09:17:03;;;;;;;3.20;1.50;;;-8.20;99.90;;;;;;5053628;28;20654;-63
2021/01/31 09:19:30;;;;;;;2.10;1.33;;;-8.20;99.90;;;;;;5053969;28;20246;-63
2021/01/31 09:22:01;;;;;;;2.20;1.50;;;-8.10;99.90;;;;;;5052902;28;20333;-63
2021/01/31 09:24:31;;;;;;;2.93;1.80;;;-8.10;99.90;;;;;;5054259;28;20243;-62
2021/01/31 09:26:59;;;;;;;3.60;1.77;;;-8.00;99.90;;;;;;5053827;28;20234;-62
2021/01/31 09:29:28;;;;;;;1.50;1.40;;;-8.00;99.90;;;;;;5053417;28;20653;-64
2021/01/31 09:31:57;;;;;;;2.47;1.63;;;-8.00;99.90;;;;;;5054435;28;20249;-63
2021/01/31 09:34:26;;;;;;;2.83;1.57;;;-7.90;99.90;;;;;;5053148;28;20260;-63
2021/01/31 09:37:10;;;;;;;3.13;1.80;;;-7.90;99.90;;;;;;5054069;28;20285;-64
2021/01/31 09:39:39;;;;;;;4.10;1.53;;;-7.80;99.90;;;;;;5053681;28;20264;-63
2021/01/31 09:42:07;;;;;;;4.17;1.87;;;-7.80;99.90;;;;;;5053538;28;20222;-62
2021/01/31 09:44:36;;;;;;;3.10;1.93;;;-7.80;99.90;;;;;;5053929;28;20242;-62
2021/01/31 09:47:04;;;;;;;3.40;1.73;;;-7.70;99.90;;;;;;5053109;28;20223;-63
2021/01/31 09:49:31;;;;;;;2.50;1.60;;;-7.60;99.90;;;;;;5053291;28;20231;-63
2021/01/31 09:52:05;;;;;;;2.47;1.63;;;-7.50;99.90;;;;;;5053353;28;20303;-63
2021/01/31 09:54:34;;;;;;;4.53;1.53;;;-7.60;99.90;;;;;;5053629;28;20219;-63
2021/01/31 09:57:04;;;;;;;3.33;1.80;;;-7.50;99.90;;;;;;5051646;28;20238;-62
2021/01/31 09:59:34;;;;;;;4.33;2.27;;;-7.50;99.90;;;;;;5053264;28;20219;-62
2021/01/31 10:02:06;;;;;;;2.20;1.57;;;-7.40;99.90;;;;;;5052582;28;20230;-62
2021/01/31 10:04:33;;;;;;;2.53;1.17;;;-7.40;99.90;;;;;;5047184;28;20295;-61
2021/01/31 10:07:07;;;;;;;2.43;1.53;;;-7.40;99.90;;;;;;5052859;28;20245;-63
2021/01/31 10:09:36;;;;;;;3.20;1.90;;;-7.30;99.90;;;;;;5039253;28;20267;-63
2021/01/31 10:12:30;;;;;;;3.53;1.80;;;-7.20;99.90;;;;;;5052744;28;20242;-62
2021/01/31 10:14:59;;;;;;;3.03;1.80;;;-7.20;99.90;;;;;;5053179;28;20192;-62
2021/01/31 10:17:39;;;;;;;4.03;1.80;;;-7.10;99.90;;;;;;5052723;28;20242;-62
2021/01/31 10:20:28;;;;;;;4.93;1.80;;;-7.10;99.90;;;;;;5051996;28;20696;-64
2021/01/31 10:22:56;;;;;;;1.40;1.13;;;-7.10;99.90;;;;;;5048475;28;20219;-63
2021/01/31 10:25:22;;;;;;;2.53;1.93;;;-7.00;99.90;;;;;;5052732;28;20294;-64
2021/01/31 10:27:50;;;;;;;4.53;2.00;;;-7.00;99.90;;;;;;5053379;28;20317;-63
2021/01/31 10:30:25;;;;;;;3.53;2.20;;;-6.90;99.90;;;;;;5052436;28;20215;-64
2021/01/31 10:32:53;;;;;;;3.20;1.87;;;-6.90;99.90;;;;;;5052627;28;20222;-63
2021/01/31 10:35:32;;;;;;;3.93;1.97;;;-6.90;99.90;;;;;;5052110;28;20279;-64
2021/01/31 10:38:00;;;;;;;1.30;1.17;;;-6.90;99.90;;;;;;5050589;28;20698;-64
2021/01/31 10:40:26;;;;;;;2.33;1.90;;;-6.80;99.90;;;;;;5052662;28;20562;-65
2021/01/31 10:42:53;;;;;;;1.13;1.03;;;-6.80;99.90;;;;;;5052347;28;20231;-63
2021/01/31 10:45:24;;;;;;;1.63;1.40;;;-6.80;99.90;;;;;;5051787;28;20194;-63
2021/01/31 10:47:51;;;;;;;1.47;1.27;;;-6.80;99.90;;;;;;5052637;28;20624;-64
2021/01/31 10:50:19;;;;;;;6.50;1.63;;;-6.80;99.90;;;;;;5052697;28;20199;-63
2021/01/31 10:52:48;;;;;;;7.20;3.40;;;-6.80;99.90;;;;;;5052199;28;20230;-64
2021/01/31 10:55:14;;;;;;;3.40;2.07;;;-6.80;99.90;;;;;;5052441;28;20223;-62
2021/01/31 10:57:40;;;;;;;3.47;2.20;;;-6.80;99.90;;;;;;5052092;28;20291;-63
2021/01/31 11:00:10;;;;;;;0.83;0.80;;;-6.70;99.90;;;;;;5052014;28;20290;-63
2021/01/31 11:02:37;;;;;;;1.60;1.27;;;-6.60;99.90;;;;;;5051653;28;20302;-62
2021/01/31 11:05:05;;;;;;;3.87;1.80;;;-6.60;99.90;;;;;;5051784;28;20663;-63
2021/01/31 11:07:31;;;;;;;2.97;1.97;;;-6.60;99.90;;;;;;5052289;28;20619;-63
2021/01/31 11:09:58;;;;;;;3.53;2.50;;;-6.50;99.90;;;;;;5051918;28;20199;-62
2021/01/31 11:12:24;;;;;;;4.47;2.37;;;-6.40;99.90;;;;;;5052176;28;20244;-64
2021/01/31 11:14:51;;;;;;;2.17;1.63;;;-6.40;99.90;;;;;;5052280;28;20248;-63
2021/01/31 11:17:17;;;;;;;2.43;1.40;;;-6.40;99.90;;;;;;5052098;28;20250;-63
2021/01/31 11:19:44;;;;;;;3.73;2.00;;;-6.30;99.90;;;;;;5052101;28;20581;-63
2021/01/31 11:22:11;;;;;;;2.83;2.10;;;-6.30;99.90;;;;;;5051567;28;20291;-61
2021/01/31 11:24:37;;;;;;;2.50;1.83;;;-6.30;99.90;;;;;;5052310;28;20193;-62
2021/01/31 11:27:04;;;;;;;2.93;2.03;;;-6.30;99.90;;;;;;5052092;28;20226;-62
2021/01/31 11:29:31;;;;;;;5.03;2.00;;;-6.20;99.90;;;;;;5051382;28;20790;-64
2021/01/31 11:31:57;;;;;;;3.17;1.93;;;-6.20;99.90;;;;;;5052100;28;20230;-66
2021/01/31 11:34:24;;;;;;;3.30;2.23;;;-6.10;99.90;;;;;;5052156;28;20235;-66
2021/01/31 11:36:51;;;;;;;4.87;2.23;;;-6.10;99.90;;;;;;5052729;28;20187;-64
2021/01/31 11:39:17;;;;;;;3.53;1.90;;;-6.10;99.90;;;;;;5052047;28;20218;-65
2021/01/31 11:41:44;;;;;;;2.57;1.87;;;-6.00;99.90;;;;;;5052241;28;20292;-63
2021/01/31 11:44:11;;;;;;;1.37;1.17;;;-6.10;99.90;;;;;;5052430;28;20265;-64
2021/01/31 11:46:37;;;;;;;3.23;2.30;;;-6.10;99.90;;;;;;5052021;28;20195;-64
2021/01/31 11:49:04;;;;;;;2.03;1.70;;;-6.00;99.90;;;;;;5052038;28;20283;-62
2021/01/31 11:51:31;;;;;;;2.40;1.40;;;-6.00;99.90;;;;;;5051385;28;20606;-65
2021/01/31 11:53:59;;;;;;;2.50;2.23;;;-6.10;99.90;;;;;;5051604;28;20602;-65
2021/01/31 11:56:25;;;;;;;1.87;1.47;;;-6.00;99.90;;;;;;5051362;28;20184;-63
2021/01/31 11:58:52;;;;;;;6.17;2.23;;;-6.10;99.90;;;;;;5051087;28;20227;-63
2021/01/31 12:01:19;;;;;;;5.37;1.70;;;-6.10;99.90;;;;;;5051562;28;20281;-65
2021/01/31 12:03:46;;;;;;;3.17;1.63;;;-6.20;99.90;;;;;;5049271;28;20288;-63
2021/01/31 12:06:12;;;;;;;2.27;1.40;;;-6.10;99.90;;;;;;5049623;28;20250;-62
2021/01/31 12:08:40;;;;;;;3.17;1.60;;;-6.10;99.90;;;;;;5047730;28;21135;-63
2021/01/31 12:11:09;;;;;;;3.37;1.30;;;-6.10;99.90;;;;;;5049583;28;20229;-63
2021/01/31 12:13:35;;;;;;;2.80;1.80;;;-6.00;99.90;;;;;;5051140;28;20253;-63
2021/01/31 12:16:02;;;;;;;4.05;2.60;;;-6.00;99.90;;;;;;5049528;28;20485;-64
2021/01/31 12:18:29;;;;;;;3.83;1.73;;;-6.00;99.90;;;;;;5051474;28;20192;-65
2021/01/31 12:20:55;;;;;;;4.40;1.80;;;-6.00;99.90;;;;;;5052995;28;20202;-64
2021/01/31 12:23:22;;;;;;;2.60;1.73;;;-5.90;99.90;;;;;;5055439;28;20323;-63
2021/01/31 12:25:48;;;;;;;2.97;1.80;;;-5.90;99.90;;;;;;5055532;28;20242;-63
2021/01/31 12:28:16;;;;;;;3.83;2.07;;;-5.90;99.90;;;;;;5054513;28;20192;-64
2021/01/31 12:30:43;;;;;;;2.43;1.73;;;-5.90;99.90;;;;;;5055187;28;20191;-64
2021/01/31 12:33:10;;;;;;;3.43;2.23;;;-5.90;99.90;;;;;;5054576;28;20232;-66
2021/01/31 12:35:37;;;;;;;2.60;1.43;;;-5.80;99.90;;;;;;5054552;28;20567;-64
2021/01/31 12:38:04;;;;;;;5.90;2.37;;;-5.80;99.90;;;;;;5055229;28;20261;-64
2021/01/31 12:40:32;;;;;;;4.00;2.27;;;-5.80;99.90;;;;;;5055568;28;20227;-66
2021/01/31 12:42:59;;;;;;;2.53;1.63;;;-5.80;99.90;;;;;;5042322;28;20220;-63
2021/01/31 12:45:26;;;;;;;1.97;1.53;;;-5.80;99.90;;;;;;5035705;28;20545;-64
2021/01/31 12:47:53;;;;;;;2.37;1.60;;;-5.70;99.90;;;;;;5038665;28;20187;-63
2021/01/31 12:50:22;;;;;;;2.47;1.23;;;-5.80;99.90;;;;;;5054607;28;20662;-63
2021/01/31 12:52:49;;;;;;;2.20;1.50;;;-5.70;99.90;;;;;;5054740;28;20648;-63
2021/01/31 12:55:16;;;;;;;1.83;1.20;;;-5.80;99.90;;;;;;5054903;28;20288;-63
2021/01/31 12:57:42;;;;;;;2.33;1.20;;;-5.70;99.90;;;;;;5054565;28;20605;-63
2021/01/31 13:00:13;;;;;;;1.80;1.37;;;-5.80;99.90;;;;;;5041531;28;20292;-62
2021/01/31 13:02:40;;;;;;;3.13;1.53;;;-5.80;99.90;;;;;;5035051;28;20243;-64
2021/01/31 13:05:09;;;;;;;1.80;1.10;;;-5.80;99.90;;;;;;5049564;28;20223;-62
2021/01/31 13:07:35;;;;;;;1.20;0.93;;;-5.70;99.90;;;;;;5054504;28;20223;-62
2021/01/31 13:10:03;;;;;;;1.43;1.13;;;-5.70;99.90;;;;;;5072949;28;20224;-64